createdAt,value
2022-10-27T00:00:50.185Z,55.47
2022-10-27T00:03:18.763Z,54.85
2022-10-27T00:05:47.816Z,55.26
2022-10-27T00:08:21.075Z,54.72
2022-10-27T00:11:03.521Z,54.82
2022-10-27T00:13:31.231Z,54.97
2022-10-27T00:15:59.711Z,54.86
2022-10-27T00:18:26.991Z,54.93
2022-10-27T00:21:06.129Z,54.95
2022-10-27T00:23:33.788Z,55.33
2022-10-27T00:26:01.454Z,55.03
2022-10-27T00:28:29.326Z,54.86
2022-10-27T00:31:04.586Z,56.09
2022-10-27T00:33:31.905Z,56.00
2022-10-27T00:36:06.730Z,55.93
2022-10-27T00:38:34.175Z,55.68
2022-10-27T00:41:02.262Z,56.29
2022-10-27T00:43:35.344Z,56.36
2022-10-27T00:46:16.993Z,55.61
2022-10-27T00:48:44.168Z,56.88
2022-10-27T00:51:16.415Z,56.79
2022-10-27T00:53:43.898Z,56.63
2022-10-27T00:56:11.389Z,56.31
2022-10-27T00:58:39.009Z,57.00
2022-10-27T01:01:06.490Z,56.97
2022-10-27T01:03:34.220Z,56.58
2022-10-27T01:06:01.721Z,57.09
2022-10-27T01:08:29.157Z,57.28
2022-10-27T01:10:56.195Z,57.35
2022-10-27T01:13:24.891Z,57.10
2022-10-27T01:16:02.038Z,57.41
2022-10-27T01:18:35.120Z,57.33
2022-10-27T01:21:24.995Z,57.65
2022-10-27T01:23:54.618Z,57.92
2022-10-27T01:26:48.259Z,58.00
2022-10-27T01:29:33.497Z,58.57
2022-10-27T01:32:16.208Z,58.62
2022-10-27T01:34:49.345Z,59.15
2022-10-27T01:37:21.266Z,59.05
2022-10-27T01:39:58.212Z,59.22
2022-10-27T01:42:37.228Z,59.14
2022-10-27T01:45:08.202Z,59.32
2022-10-27T01:47:36.678Z,58.83
2022-10-27T01:50:05.221Z,58.90
2022-10-27T01:52:49.809Z,58.74
2022-10-27T01:56:00.248Z,59.41
2022-10-27T01:58:51.501Z,58.52
2022-10-27T02:01:18.517Z,59.01
2022-10-27T02:03:48.544Z,59.21
2022-10-27T02:06:31.917Z,59.39
2022-10-27T02:09:15.111Z,59.43
2022-10-27T02:11:47.078Z,59.39
2022-10-27T02:14:14.495Z,59.19
2022-10-27T02:16:47.628Z,58.86
2022-10-27T02:19:25.729Z,58.64
2022-10-27T02:21:55.655Z,58.73
2022-10-27T02:24:23.192Z,58.96
2022-10-27T02:27:02.831Z,59.14
2022-10-27T02:32:30.055Z,58.82
2022-10-27T02:34:58.344Z,59.24
2022-10-27T02:43:01.291Z,59.38
2022-10-27T02:56:25.412Z,59.63
2022-10-27T02:58:52.399Z,59.65
2022-10-27T03:04:03.583Z,60.06
2022-10-27T03:06:30.609Z,59.80
2022-10-27T03:08:57.550Z,60.11
2022-10-27T03:14:08.663Z,60.28
2022-10-27T03:16:35.621Z,59.94
2022-10-27T03:19:02.559Z,60.26
2022-10-27T03:21:29.485Z,59.85
2022-10-27T03:23:56.373Z,59.90
2022-10-27T03:29:08.051Z,59.79
2022-10-27T03:31:34.910Z,59.92
2022-10-27T03:39:30.831Z,59.95
2022-10-27T03:41:57.798Z,59.75
2022-10-27T03:44:24.698Z,59.12
2022-10-27T03:49:35.728Z,59.24
2022-10-27T03:52:02.746Z,58.79
2022-10-27T03:57:15.562Z,58.61
2022-10-27T03:59:42.488Z,58.72
2022-10-27T04:02:09.558Z,58.25
2022-10-27T04:07:20.845Z,57.84
2022-10-27T04:12:32.198Z,57.94
2022-10-27T04:14:59.171Z,57.14
2022-10-27T04:17:26.066Z,57.10
2022-10-27T04:22:37.325Z,57.17
2022-10-27T04:25:04.711Z,57.07
2022-10-27T04:30:15.887Z,57.39
2022-10-27T04:32:42.820Z,56.85
2022-10-27T04:40:44.472Z,57.00
2022-10-27T04:43:11.500Z,57.09
2022-10-27T04:48:23.273Z,56.27
2022-10-27T04:50:52.667Z,57.28
2022-10-27T04:53:19.667Z,56.66
2022-10-27T04:55:46.545Z,56.66
2022-10-27T04:58:13.558Z,56.97
2022-10-27T05:00:40.587Z,56.33
2022-10-27T05:05:53.098Z,57.03
2022-10-27T05:08:20.034Z,57.58
2022-10-27T05:10:47.171Z,57.41
2022-10-27T05:13:14.094Z,57.42
2022-10-27T05:15:41.135Z,57.56
2022-10-27T05:18:10.203Z,58.17
2022-10-27T05:20:38.024Z,58.03
2022-10-27T05:25:55.257Z,57.67
2022-10-27T05:28:22.839Z,57.57
2022-10-27T05:30:49.858Z,58.15
2022-10-27T05:33:16.826Z,58.37
2022-10-27T05:41:15.837Z,58.17
2022-10-27T05:43:42.834Z,58.09
2022-10-27T05:46:09.941Z,58.58
2022-10-27T05:48:36.983Z,58.10
2022-10-27T05:56:36.549Z,57.41
2022-10-27T06:01:47.967Z,58.27
2022-10-27T06:04:15.045Z,57.97
2022-10-27T06:06:41.954Z,58.01
2022-10-27T06:09:08.886Z,57.59
2022-10-27T06:11:35.864Z,57.86
2022-10-27T06:14:02.746Z,57.16
2022-10-27T06:16:29.699Z,57.07
2022-10-27T06:18:57.135Z,56.74
2022-10-27T06:21:24.058Z,56.63
2022-10-27T06:23:51.184Z,56.86
2022-10-27T06:31:46.526Z,57.24
2022-10-27T06:34:13.418Z,57.04
2022-10-27T06:36:40.424Z,57.38
2022-10-27T06:39:07.338Z,57.32
2022-10-27T06:41:34.189Z,57.21
2022-10-27T06:44:01.180Z,56.41
2022-10-27T06:46:28.091Z,56.27
2022-10-27T06:48:54.969Z,57.15
2022-10-27T06:51:21.973Z,57.17
2022-10-27T06:53:49.011Z,57.28
2022-10-27T06:56:15.942Z,56.71
2022-10-27T06:58:42.786Z,56.78
2022-10-27T07:01:09.911Z,56.68
2022-10-27T07:03:38.181Z,55.98
2022-10-27T07:06:05.718Z,55.55
2022-10-27T07:19:30.546Z,54.59
2022-10-27T07:27:25.960Z,53.99
2022-10-27T07:35:22.305Z,53.43
2022-10-27T07:40:34.937Z,53.22
2022-10-27T07:43:10.280Z,52.74
2022-10-27T07:45:38.989Z,52.43
2022-10-27T07:56:21.237Z,52.16
2022-10-27T07:58:49.658Z,51.99
2022-10-27T08:01:16.709Z,51.95
2022-10-27T08:03:45.232Z,51.65
2022-10-27T08:06:14.521Z,51.09
2022-10-27T08:11:26.183Z,49.66
2022-10-27T08:13:53.949Z,49.82
2022-10-27T08:16:20.984Z,49.41
2022-10-27T08:18:47.979Z,48.79
2022-10-27T08:21:14.993Z,48.88
2022-10-27T08:23:43.092Z,49.32
2022-10-27T08:26:10.112Z,49.04
2022-10-27T08:28:37.625Z,48.29
2022-10-27T08:31:04.481Z,48.70
2022-10-27T08:33:31.361Z,48.53
2022-10-27T08:36:01.088Z,48.04
2022-10-27T08:41:24.111Z,48.00
2022-10-27T08:43:59.886Z,47.86
2022-10-27T08:46:40.838Z,48.17
2022-10-27T08:49:28.308Z,48.55
2022-10-27T08:52:06.492Z,48.33
2022-10-27T08:54:33.618Z,48.89
2022-10-27T08:57:03.546Z,48.23
2022-10-27T08:59:31.963Z,47.17
2022-10-27T09:05:26.566Z,47.13
2022-10-27T09:08:04.644Z,46.54
2022-10-27T09:10:46.962Z,46.34
2022-10-27T09:16:40.093Z,47.60
2022-10-27T09:19:13.963Z,47.54
2022-10-27T09:21:43.559Z,47.16
2022-10-27T09:24:17.812Z,47.44
2022-10-27T09:26:47.123Z,46.82
2022-10-27T09:29:27.874Z,47.03
2022-10-27T09:35:02.343Z,46.37
2022-10-27T09:37:40.823Z,46.86
2022-10-27T09:42:57.712Z,47.54
2022-10-27T09:45:28.740Z,46.97
2022-10-27T09:51:15.781Z,47.86
2022-10-27T09:56:38.455Z,47.08
2022-10-27T09:59:06.620Z,47.29
2022-10-27T10:10:31.238Z,42.62
2022-10-27T10:13:04.382Z,41.00
2022-10-27T10:18:28.972Z,38.91
2022-10-27T10:20:59.565Z,38.36
2022-10-27T10:26:27.329Z,37.10
2022-10-27T10:34:33.347Z,38.94
2022-10-27T10:37:00.788Z,39.22
2022-10-27T10:39:29.950Z,39.68
2022-10-27T10:45:22.555Z,41.40
2022-10-27T10:48:00.060Z,42.24
2022-10-27T10:50:28.676Z,42.72
2022-10-27T10:55:43.857Z,44.48
2022-10-27T11:01:07.504Z,46.25
2022-10-27T11:03:40.439Z,47.26
2022-10-27T11:06:17.653Z,48.44
2022-10-27T11:08:52.101Z,48.90
2022-10-27T11:11:22.400Z,49.53
2022-10-27T11:16:36.108Z,49.95
2022-10-27T11:19:15.499Z,50.24
2022-10-27T11:24:47.959Z,50.94
2022-10-27T11:27:29.079Z,51.76
2022-10-27T11:33:01.131Z,51.75
2022-10-27T11:35:41.240Z,50.77
2022-10-27T11:38:40.241Z,51.44
2022-10-27T11:41:18.477Z,52.53
2022-10-27T11:44:14.637Z,52.38
2022-10-27T11:49:48.046Z,52.92
2022-10-27T11:52:29.126Z,52.05
2022-10-27T11:54:57.469Z,52.21
2022-10-27T12:03:28.247Z,53.44
2022-10-27T12:06:10.345Z,53.17
2022-10-27T12:08:45.960Z,54.17
2022-10-27T12:11:18.260Z,53.81
2022-10-27T12:14:06.538Z,54.13
2022-10-27T12:16:42.618Z,54.84
2022-10-27T12:22:50.724Z,54.64
2022-10-27T12:25:34.408Z,53.87
2022-10-27T12:28:06.887Z,54.27
2022-10-27T12:30:34.108Z,54.31
2022-10-27T12:33:04.245Z,54.41
2022-10-27T12:36:09.618Z,55.12
2022-10-27T12:42:11.908Z,53.82
2022-10-27T12:44:44.664Z,54.87
2022-10-27T12:47:36.669Z,55.00
2022-10-27T12:50:25.486Z,55.44
2022-10-27T12:53:15.750Z,56.15
2022-10-27T12:56:13.695Z,56.08
2022-10-27T12:58:46.427Z,56.55
2022-10-27T13:01:44.542Z,56.96
2022-10-27T13:07:27.007Z,56.12
2022-10-27T13:10:19.487Z,56.29
2022-10-27T13:13:04.373Z,57.18
2022-10-27T13:15:46.501Z,57.02
2022-10-27T13:18:32.168Z,56.32
2022-10-27T13:21:24.205Z,56.96
2022-10-27T13:24:06.371Z,57.67
2022-10-27T13:26:52.201Z,57.47
2022-10-27T13:29:50.349Z,57.55
2022-10-27T13:32:20.300Z,57.72
2022-10-27T13:35:02.591Z,57.80
2022-10-27T13:40:38.159Z,58.40
2022-10-27T13:46:08.509Z,59.54
2022-10-27T13:48:35.665Z,59.37
2022-10-27T13:51:48.668Z,59.03
2022-10-27T13:54:56.357Z,59.45
2022-10-27T13:57:52.306Z,59.83
2022-10-27T14:05:59.835Z,59.96
2022-10-27T14:08:31.793Z,59.87
2022-10-27T14:11:10.274Z,60.47
2022-10-27T14:13:44.853Z,60.40
2022-10-27T14:16:26.724Z,60.18
2022-10-27T14:19:04.305Z,60.53
2022-10-27T14:27:24.572Z,60.89
2022-10-27T14:32:37.418Z,60.99
2022-10-27T14:35:29.175Z,60.85
2022-10-27T14:37:58.095Z,60.60
2022-10-27T14:40:40.717Z,61.11
2022-10-27T14:43:20.228Z,60.80
2022-10-27T14:46:01.981Z,60.82
2022-10-27T14:48:31.920Z,60.54
2022-10-27T14:51:10.559Z,60.07
2022-10-27T14:56:30.793Z,60.78
2022-10-27T14:59:03.527Z,61.08
2022-10-27T15:01:50.952Z,61.38
2022-10-27T15:04:20.849Z,61.73
2022-10-27T15:06:49.244Z,61.51
2022-10-27T15:09:34.237Z,61.39
2022-10-27T15:12:19.170Z,62.19
2022-10-27T15:14:47.409Z,62.29
2022-10-27T15:17:16.889Z,62.09
2022-10-27T15:19:49.417Z,62.39
2022-10-27T15:22:18.707Z,62.30
2022-10-27T15:24:46.351Z,62.36
2022-10-27T15:27:13.630Z,62.32
2022-10-27T15:29:42.878Z,62.57
2022-10-27T15:32:32.762Z,62.77
2022-10-27T15:34:59.750Z,63.00
2022-10-27T15:40:29.534Z,63.50
2022-10-27T15:42:57.904Z,63.80
2022-10-27T15:45:30.101Z,63.82
2022-10-27T15:47:58.552Z,63.78
2022-10-27T15:50:31.618Z,64.04
2022-10-27T15:53:20.427Z,63.75
2022-10-27T15:56:22.821Z,63.89
2022-10-27T16:02:35.162Z,63.14
2022-10-27T16:05:30.049Z,63.91
2022-10-27T16:08:20.731Z,63.91
2022-10-27T16:10:51.901Z,64.81
2022-10-27T16:13:21.529Z,64.66
2022-10-27T16:15:49.786Z,65.05
2022-10-27T16:18:20.483Z,65.33
2022-10-27T16:20:47.503Z,65.50
2022-10-27T16:23:16.034Z,66.94
2022-10-27T16:25:45.359Z,66.90
2022-10-27T16:28:18.931Z,66.43
2022-10-27T16:30:46.277Z,67.35
2022-10-27T16:33:17.400Z,66.31
2022-10-27T16:35:44.851Z,66.67
2022-10-27T16:38:12.093Z,66.82
2022-10-27T16:40:42.255Z,67.11
2022-10-27T16:43:52.818Z,67.08
2022-10-27T16:46:19.924Z,66.32
2022-10-27T16:51:32.297Z,66.55
2022-10-27T16:53:59.361Z,66.69
2022-10-27T16:56:27.104Z,66.61
2022-10-27T16:58:54.212Z,66.60
2022-10-27T17:04:07.086Z,65.64
2022-10-27T17:06:34.303Z,65.45
2022-10-27T17:09:01.433Z,65.38
2022-10-27T17:11:28.503Z,65.87
2022-10-27T17:13:55.654Z,65.66
2022-10-27T17:16:22.799Z,65.65
2022-10-27T17:18:50.018Z,66.22
2022-10-27T17:21:17.196Z,66.30
2022-10-27T17:23:45.768Z,66.42
2022-10-27T17:26:13.986Z,66.79
2022-10-27T17:28:41.898Z,66.42
2022-10-27T17:31:12.039Z,66.53
2022-10-27T17:33:39.842Z,66.84
2022-10-27T17:38:40.313Z,67.53
2022-10-27T17:41:09.296Z,68.08
2022-10-27T17:43:37.531Z,67.28
2022-10-27T17:46:22.311Z,67.71
2022-10-27T17:48:54.969Z,67.07
2022-10-27T17:51:24.386Z,66.43
2022-10-27T17:53:52.687Z,65.88
2022-10-27T17:56:29.744Z,65.86
2022-10-27T17:58:56.869Z,66.16
2022-10-27T18:01:27.451Z,66.45
2022-10-27T18:03:56.434Z,66.63
2022-10-27T18:06:25.412Z,66.88
2022-10-27T18:08:58.435Z,66.65
2022-10-27T18:11:28.402Z,67.25
2022-10-27T18:14:02.792Z,67.18
2022-10-27T18:16:32.982Z,67.56
2022-10-27T18:19:05.313Z,67.04
2022-10-27T18:21:35.562Z,67.12
2022-10-27T18:24:03.785Z,66.59
2022-10-27T18:26:34.643Z,67.19
2022-10-27T18:29:02.301Z,67.12
2022-10-27T18:31:36.376Z,67.53
2022-10-27T18:34:05.445Z,67.51
2022-10-27T18:36:33.418Z,67.82
2022-10-27T18:39:01.512Z,68.35
2022-10-27T18:41:31.650Z,68.03
2022-10-27T18:46:43.615Z,67.60
2022-10-27T18:49:15.922Z,67.67
2022-10-27T18:51:47.634Z,67.74
2022-10-27T18:54:17.529Z,67.51
2022-10-27T18:56:44.648Z,67.46
2022-10-27T18:59:13.387Z,66.91
2022-10-27T19:01:42.731Z,67.09
2022-10-27T19:04:10.133Z,66.23
2022-10-27T19:06:38.341Z,66.13
2022-10-27T19:09:05.824Z,66.64
2022-10-27T19:11:35.175Z,65.81
2022-10-27T19:14:03.002Z,66.45
2022-10-27T19:16:31.066Z,66.25
2022-10-27T19:18:59.140Z,66.45
2022-10-27T19:21:26.854Z,66.74
2022-10-27T19:23:56.505Z,66.02
2022-10-27T19:26:26.636Z,66.70
2022-10-27T19:31:40.456Z,67.03
2022-10-27T19:34:10.151Z,66.69
2022-10-27T19:36:38.149Z,66.07
2022-10-27T19:39:07.409Z,65.60
2022-10-27T19:41:36.618Z,65.31
2022-10-27T19:44:04.723Z,65.19
2022-10-27T19:46:32.713Z,65.18
2022-10-27T19:49:01.442Z,65.20
2022-10-27T19:51:31.712Z,65.26
2022-10-27T19:53:59.837Z,65.18
2022-10-27T19:56:28.996Z,65.46
2022-10-27T20:01:51.826Z,65.80
2022-10-27T20:04:20.405Z,65.95
2022-10-27T20:06:47.434Z,65.42
2022-10-27T20:09:16.301Z,65.42
2022-10-27T20:11:44.842Z,65.22
2022-10-27T20:17:00.024Z,65.65
2022-10-27T20:19:27.202Z,65.39
2022-10-27T20:21:56.036Z,64.93
2022-10-27T20:24:24.401Z,64.58
2022-10-27T20:26:53.738Z,64.50
2022-10-27T20:29:22.875Z,64.94
2022-10-27T20:32:07.832Z,64.77
2022-10-27T20:34:39.414Z,65.02
2022-10-27T20:38:03.574Z,65.67
2022-10-27T20:40:55.098Z,65.85
2022-10-27T20:43:22.662Z,65.22
2022-10-27T20:46:06.433Z,65.49
2022-10-27T20:48:49.975Z,65.21
2022-10-27T20:51:17.354Z,64.74
2022-10-27T20:53:45.458Z,64.90
2022-10-27T20:56:18.300Z,64.84
2022-10-27T20:58:46.231Z,64.38
2022-10-27T21:01:35.062Z,63.80
2022-10-27T21:04:03.350Z,64.16
2022-10-27T21:06:32.840Z,64.20
2022-10-27T21:09:02.812Z,63.88
2022-10-27T21:15:15.174Z,63.78
2022-10-27T21:19:03.234Z,63.55
2022-10-27T21:23:16.404Z,64.19
2022-10-27T21:26:22.230Z,64.15
2022-10-27T21:28:51.660Z,64.18
2022-10-27T21:31:19.701Z,64.51
2022-10-27T21:33:52.914Z,64.32
2022-10-27T21:36:20.599Z,64.66
2022-10-27T21:38:49.758Z,64.44
2022-10-27T21:41:19.312Z,64.59
2022-10-27T21:43:48.003Z,64.92
2022-10-27T21:46:16.843Z,65.32
2022-10-27T21:48:44.177Z,65.30
2022-10-27T21:51:13.030Z,65.76
2022-10-27T21:53:40.802Z,65.98
2022-10-27T21:56:09.571Z,66.49
2022-10-27T21:58:37.435Z,66.41
2022-10-27T22:01:16.477Z,66.40
2022-10-27T22:03:44.283Z,66.46
2022-10-27T22:06:19.760Z,66.84
2022-10-27T22:08:47.428Z,67.07
2022-10-27T22:11:17.596Z,67.04
2022-10-27T22:13:44.731Z,66.51
2022-10-27T22:16:17.990Z,66.45
2022-10-27T22:18:46.103Z,66.40
2022-10-27T22:21:15.923Z,66.31
2022-10-27T22:23:45.482Z,66.08
2022-10-27T22:26:15.288Z,66.54
2022-10-27T22:28:42.839Z,66.68
2022-10-27T22:31:16.925Z,66.58
2022-10-27T22:33:45.837Z,66.53
2022-10-27T22:36:16.461Z,66.77
2022-10-27T22:38:44.610Z,66.87
2022-10-27T22:41:14.391Z,66.30
2022-10-27T22:43:41.993Z,66.71
2022-10-27T22:46:15.280Z,66.00
2022-10-27T22:48:42.292Z,65.71
2022-10-27T22:51:12.730Z,65.83
2022-10-27T22:53:41.543Z,65.54
2022-10-27T22:56:17.805Z,65.09
2022-10-27T22:58:49.902Z,65.00
2022-10-27T23:01:29.500Z,65.35
2022-10-27T23:03:59.809Z,65.24
2022-10-27T23:06:28.967Z,64.73
2022-10-27T23:08:58.326Z,65.02
2022-10-27T23:11:28.675Z,64.91
2022-10-27T23:13:55.831Z,64.83
2022-10-27T23:16:22.979Z,64.99
2022-10-27T23:18:50.100Z,65.30
2022-10-27T23:21:17.342Z,64.83
2022-10-27T23:23:44.539Z,64.90
2022-10-27T23:26:25.697Z,65.26
2022-10-27T23:28:59.026Z,65.37
2022-10-27T23:31:27.665Z,65.17
2022-10-27T23:34:01.111Z,65.21
2022-10-27T23:36:30.822Z,65.07
2022-10-27T23:38:58.373Z,65.08
2022-10-27T23:41:26.176Z,65.04
2022-10-27T23:43:55.620Z,65.11
2022-10-27T23:46:24.170Z,65.04
2022-10-27T23:48:53.935Z,64.51
2022-10-27T23:53:53.278Z,65.39
2022-10-27T23:56:20.495Z,64.77
2022-10-27T23:58:48.216Z,64.76
